Weather at Raja Haji Abdullah Airport

Public forecast

Using degrees Celsius for public forecast. Weather courtesy of forecast.io.

Closest aviation weather report (METAR) to Raja Haji Abdullah Airport

Closest report is Seletar Airport, 35.8 nm (66.3 km) NE.

2024/05/25 22:00 (retrieved 48 minutes ago)

WSSL 252200Z VRB01KT 9999 FEW018 SCT150 BKN250 27/26 Q1009

Closest aviation forecast (TAF) to Raja Haji Abdullah Airport

Closest forecast is Seletar Airport, 35.8 nm (66.3 km) NE.

2024/05/25 18:00 (retrieved 5 hours ago)

TAF WSSL 251700Z 2518/2700 14008KT 9999 FEW015 SCT020 TEMPO 2606/2609 3000 TSRA FEW012CB BKN015